< < Back
Terminal Aerodrome Forecast


Current Version              Previous Versions:   1  2  3  4  5  6  7  8  9  

Terminal Aerodrome Forecast

006
FTUS42 KJAX 312300
TAFJAX
TAF
KJAX 312321Z 0100/0124 29005KT P6SM SKC
     FM010800 29012G22KT P6SM BKN035
     FM011400 30020G30KT P6SM SCT040
     FM012300 30013G20KT P6SM SCT040=

Latest METAR

571
SAUS80 KWBC 010100 RRK
MTRJAX
METAR KJAX 010056Z 26005KT 10SM CLR 13/10 A2985 RMK AO2 SLP109
T01280100


USA.gov is the U.S. government's official web portal to all federal, state and local government web resources and services.